createdAt,value
2018-02-15T00:01:50.971Z,85.28
2018-02-15T00:04:16.849Z,85.16
2018-02-15T00:06:42.764Z,84.96
2018-02-15T00:09:08.725Z,84.76
2018-02-15T00:11:34.598Z,84.82
2018-02-15T00:14:00.533Z,84.82
2018-02-15T00:16:26.405Z,84.80
2018-02-15T00:18:52.349Z,84.86
2018-02-15T00:21:18.212Z,84.88
2018-02-15T00:23:44.081Z,84.86
2018-02-15T00:26:09.996Z,84.93
2018-02-15T00:28:35.860Z,84.95
2018-02-15T00:31:01.729Z,84.97
2018-02-15T00:33:27.638Z,84.99
2018-02-15T00:35:53.501Z,85.00
2018-02-15T00:38:19.376Z,84.88
2018-02-15T00:40:45.293Z,84.77
2018-02-15T00:43:11.153Z,84.62
2018-02-15T00:45:37.026Z,84.56
2018-02-15T00:48:02.985Z,84.65
2018-02-15T00:50:28.850Z,84.73
2018-02-15T00:52:54.751Z,84.79
2018-02-15T00:55:20.621Z,84.86
2018-02-15T00:57:46.549Z,84.86
2018-02-15T01:00:12.488Z,84.79
2018-02-15T01:02:38.352Z,84.80
2018-02-15T01:05:04.230Z,84.87
2018-02-15T01:07:30.140Z,84.91
2018-02-15T01:09:56.073Z,84.97
2018-02-15T01:12:22.316Z,84.91
2018-02-15T01:14:48.181Z,84.62
2018-02-15T01:17:14.080Z,84.47
2018-02-15T01:19:39.983Z,84.44
2018-02-15T01:22:05.843Z,84.33
2018-02-15T01:24:31.708Z,84.29
2018-02-15T01:26:57.620Z,84.24
2018-02-15T01:29:23.485Z,84.30
2018-02-15T01:31:49.352Z,84.38
2018-02-15T01:34:15.266Z,84.46
2018-02-15T01:36:41.137Z,84.29
2018-02-15T01:39:07.013Z,84.12
2018-02-15T01:41:32.929Z,83.95
2018-02-15T01:43:58.836Z,83.84
2018-02-15T01:46:24.732Z,83.92
2018-02-15T01:48:50.609Z,83.94
2018-02-15T01:51:16.541Z,83.91
2018-02-15T01:53:42.411Z,83.99
2018-02-15T01:56:08.303Z,84.13
2018-02-15T01:58:34.269Z,84.01
2018-02-15T02:01:00.168Z,83.93
2018-02-15T02:03:26.069Z,84.09
2018-02-15T02:05:51.993Z,84.34
2018-02-15T02:08:17.898Z,84.46
2018-02-15T02:10:43.756Z,84.49
2018-02-15T02:13:09.671Z,84.63
2018-02-15T02:15:35.527Z,84.58
2018-02-15T02:18:01.400Z,84.53
2018-02-15T02:20:27.316Z,84.58
2018-02-15T02:22:53.172Z,84.57
2018-02-15T02:25:19.042Z,84.58
2018-02-15T02:27:44.948Z,84.55
2018-02-15T02:30:10.822Z,84.59
2018-02-15T02:32:36.737Z,84.55
2018-02-15T02:35:02.681Z,84.65
2018-02-15T02:37:28.548Z,84.66
2018-02-15T02:39:54.407Z,84.62
2018-02-15T02:42:20.300Z,84.59
2018-02-15T02:44:46.176Z,84.63
2018-02-15T02:47:12.088Z,84.46
2018-02-15T02:49:37.992Z,84.25
2018-02-15T02:52:03.857Z,84.08
2018-02-15T02:54:29.721Z,83.85
2018-02-15T02:56:55.634Z,83.42
2018-02-15T02:59:21.581Z,83.36
2018-02-15T03:01:47.545Z,83.50
2018-02-15T03:04:13.450Z,83.54
2018-02-15T03:06:39.329Z,83.58
2018-02-15T03:09:05.267Z,83.57
2018-02-15T03:11:31.133Z,83.53
2018-02-15T03:13:57.008Z,83.46
2018-02-15T03:16:22.987Z,83.55
2018-02-15T03:18:48.936Z,83.54
2018-02-15T03:21:14.804Z,83.63
2018-02-15T03:23:40.807Z,83.54
2018-02-15T03:26:06.684Z,83.40
2018-02-15T03:28:32.565Z,83.34
2018-02-15T03:30:58.518Z,83.40
2018-02-15T03:33:24.425Z,83.54
2018-02-15T03:35:50.393Z,83.61
2018-02-15T03:38:16.269Z,83.67
2018-02-15T03:40:42.171Z,83.46
2018-02-15T03:43:08.036Z,83.54
2018-02-15T03:45:33.936Z,83.58
2018-02-15T03:47:59.818Z,83.80
2018-02-15T03:50:25.740Z,83.89
2018-02-15T03:52:51.605Z,84.05
2018-02-15T03:55:17.473Z,84.09
2018-02-15T03:57:43.381Z,84.18
2018-02-15T04:00:09.275Z,84.18
2018-02-15T04:02:35.190Z,84.04
2018-02-15T04:05:01.067Z,84.05
2018-02-15T04:07:26.985Z,83.96
2018-02-15T04:09:52.860Z,83.81
2018-02-15T04:12:18.867Z,83.53
2018-02-15T04:14:44.780Z,83.53
2018-02-15T04:17:10.742Z,83.30
2018-02-15T04:19:37.742Z,83.33
2018-02-15T04:22:03.639Z,83.41
2018-02-15T04:24:29.562Z,83.45
2018-02-15T04:26:55.424Z,83.66
2018-02-15T04:29:21.516Z,83.66
2018-02-15T04:31:47.392Z,83.51
2018-02-15T04:34:13.310Z,83.54
2018-02-15T04:36:39.222Z,83.66
2018-02-15T04:39:05.083Z,83.73
2018-02-15T04:41:31.008Z,83.68
2018-02-15T04:43:56.881Z,83.54
2018-02-15T04:46:22.747Z,83.52
2018-02-15T04:48:48.648Z,83.56
2018-02-15T04:51:14.520Z,83.60
2018-02-15T04:53:40.447Z,83.71
2018-02-15T04:56:06.356Z,83.80
2018-02-15T04:58:32.225Z,83.76
2018-02-15T05:00:58.144Z,83.60
2018-02-15T05:03:24.021Z,83.69
2018-02-15T05:05:49.904Z,83.70
2018-02-15T05:08:15.837Z,83.54
2018-02-15T05:10:41.746Z,83.46
2018-02-15T05:13:07.604Z,82.79
2018-02-15T05:15:33.524Z,82.70
2018-02-15T05:17:59.415Z,82.78
2018-02-15T05:20:25.275Z,82.66
2018-02-15T05:22:51.179Z,82.59
2018-02-15T05:25:17.048Z,82.61
2018-02-15T05:27:42.958Z,82.57
2018-02-15T05:30:08.824Z,82.51
2018-02-15T05:32:34.700Z,82.47
2018-02-15T05:35:00.620Z,82.39
2018-02-15T05:37:26.476Z,82.15
2018-02-15T05:39:52.349Z,82.08
2018-02-15T05:42:18.260Z,81.97
2018-02-15T05:44:44.154Z,82.08
2018-02-15T05:47:10.095Z,82.26
2018-02-15T05:49:35.961Z,82.32
2018-02-15T05:52:01.831Z,82.37
2018-02-15T05:54:27.732Z,82.41
2018-02-15T05:56:53.592Z,82.63
2018-02-15T05:59:19.509Z,82.75
2018-02-15T06:01:45.381Z,82.87
2018-02-15T06:04:11.280Z,82.92
2018-02-15T06:06:37.193Z,82.90
2018-02-15T06:09:03.137Z,82.79
2018-02-15T06:11:29.013Z,82.62
2018-02-15T06:13:54.933Z,82.66
2018-02-15T06:16:20.796Z,82.77
2018-02-15T06:18:46.736Z,82.67
2018-02-15T06:21:12.733Z,82.65
2018-02-15T06:23:38.796Z,82.85
2018-02-15T06:26:04.854Z,83.02
2018-02-15T06:28:30.869Z,83.10
2018-02-15T06:30:56.916Z,82.98
2018-02-15T06:33:22.980Z,83.05
2018-02-15T06:35:49.032Z,83.02
2018-02-15T06:38:15.061Z,83.00
2018-02-15T06:40:41.124Z,82.72
2018-02-15T06:43:07.130Z,82.79
2018-02-15T06:45:33.157Z,82.84
2018-02-15T06:47:59.256Z,82.54
2018-02-15T06:50:25.311Z,82.48
2018-02-15T06:52:51.319Z,81.92
2018-02-15T06:55:17.377Z,81.66
2018-02-15T06:57:43.532Z,81.30
2018-02-15T07:00:09.548Z,81.43
2018-02-15T07:02:35.560Z,81.43
2018-02-15T07:05:01.611Z,81.29
2018-02-15T07:07:27.636Z,81.34
2018-02-15T07:09:53.680Z,80.98
2018-02-15T07:12:20.739Z,80.88
2018-02-15T07:14:46.856Z,80.53
2018-02-15T07:17:12.873Z,80.42
2018-02-15T07:19:38.924Z,80.17
2018-02-15T07:22:04.940Z,80.08
2018-02-15T07:24:30.946Z,80.02
2018-02-15T07:26:57.000Z,80.09
2018-02-15T07:29:23.023Z,80.11
2018-02-15T07:31:49.124Z,79.98
2018-02-15T07:34:15.201Z,79.79
2018-02-15T07:36:41.260Z,79.18
2018-02-15T07:39:07.277Z,78.85
2018-02-15T07:41:33.340Z,78.60
2018-02-15T07:43:59.356Z,78.07
2018-02-15T07:46:25.376Z,77.47
2018-02-15T07:48:51.464Z,77.34
2018-02-15T07:51:17.515Z,76.83
2018-02-15T07:53:43.564Z,76.40
2018-02-15T07:56:09.643Z,76.04
2018-02-15T07:58:35.676Z,75.47
2018-02-15T08:01:01.706Z,74.66
2018-02-15T08:03:27.821Z,73.64
2018-02-15T08:05:53.965Z,72.61
2018-02-15T08:08:19.984Z,72.43
2018-02-15T08:10:46.083Z,72.35
2018-02-15T08:13:12.122Z,71.62
2018-02-15T08:15:38.177Z,71.16
2018-02-15T08:18:04.231Z,71.25
2018-02-15T08:20:30.304Z,70.42
2018-02-15T08:22:56.328Z,69.95
2018-02-15T08:25:22.347Z,70.24
2018-02-15T08:27:48.404Z,70.44
2018-02-15T08:30:14.531Z,70.57
2018-02-15T08:32:40.561Z,69.69
2018-02-15T08:35:06.566Z,69.07
2018-02-15T08:37:32.631Z,68.66
2018-02-15T08:39:58.668Z,68.87
2018-02-15T08:42:24.700Z,69.33
2018-02-15T08:44:50.772Z,69.66
2018-02-15T08:47:16.829Z,69.73
2018-02-15T08:49:42.911Z,69.71
2018-02-15T08:52:09.072Z,69.76
2018-02-15T08:54:35.137Z,70.09
2018-02-15T08:57:01.177Z,70.18
2018-02-15T08:59:27.239Z,70.23
2018-02-15T09:01:53.371Z,70.62
2018-02-15T09:04:19.392Z,71.33
2018-02-15T09:06:45.613Z,71.65
2018-02-15T09:09:11.740Z,71.58
2018-02-15T09:11:37.825Z,71.59
2018-02-15T09:14:03.929Z,71.29
2018-02-15T09:16:30.067Z,71.03
2018-02-15T09:18:56.151Z,70.19
2018-02-15T09:21:22.212Z,69.24
2018-02-15T09:23:48.286Z,68.51
2018-02-15T09:26:14.393Z,68.25
2018-02-15T09:28:40.419Z,67.48
2018-02-15T09:31:06.467Z,67.90
2018-02-15T09:33:32.603Z,67.68
2018-02-15T09:35:58.895Z,67.25
2018-02-15T09:38:24.945Z,66.52
2018-02-15T09:40:51.042Z,65.03
2018-02-15T09:43:17.097Z,63.84
2018-02-15T09:45:43.176Z,63.36
2018-02-15T09:48:09.240Z,63.09
2018-02-15T09:50:35.264Z,62.68
2018-02-15T09:53:01.333Z,61.97
2018-02-15T09:55:27.627Z,60.09
2018-02-15T09:57:53.652Z,57.83
2018-02-15T10:00:19.865Z,56.42
2018-02-15T10:02:45.914Z,55.50
2018-02-15T10:05:12.005Z,54.32
2018-02-15T10:07:38.096Z,53.09
2018-02-15T10:10:04.156Z,51.61
2018-02-15T10:12:30.220Z,50.39
2018-02-15T10:14:56.311Z,48.95
2018-02-15T10:17:22.356Z,48.46
2018-02-15T10:19:48.413Z,47.86
2018-02-15T10:22:14.515Z,46.77
2018-02-15T10:24:40.567Z,45.32
2018-02-15T10:27:06.625Z,43.98
2018-02-15T10:29:32.717Z,42.21
2018-02-15T10:31:58.762Z,41.20
2018-02-15T10:34:24.844Z,41.86
2018-02-15T10:36:50.936Z,41.42
2018-02-15T10:39:23.943Z,40.82
2018-02-15T10:41:50.899Z,39.59
2018-02-15T10:44:16.975Z,38.83
2018-02-15T10:46:43.074Z,38.16
2018-02-15T10:49:09.168Z,37.24
2018-02-15T10:51:35.211Z,37.19
2018-02-15T10:54:01.493Z,37.87
2018-02-15T10:56:27.554Z,37.56
2018-02-15T10:58:53.601Z,38.52
2018-02-15T11:01:26.180Z,39.81
2018-02-15T11:03:58.357Z,42.18
2018-02-15T11:06:24.465Z,44.47
2018-02-15T11:08:50.556Z,45.92
2018-02-15T11:11:16.633Z,47.41
2018-02-15T11:13:42.743Z,48.12
2018-02-15T11:16:08.857Z,48.38
2018-02-15T11:18:34.915Z,49.08
2018-02-15T11:21:01.029Z,49.57
2018-02-15T11:23:27.075Z,49.30
2018-02-15T11:25:53.159Z,49.31
2018-02-15T11:28:19.269Z,49.15
2018-02-15T11:30:45.345Z,49.43
2018-02-15T11:33:11.392Z,49.21
2018-02-15T11:35:37.484Z,48.88
2018-02-15T11:38:03.553Z,48.44
2018-02-15T11:40:29.605Z,48.22
2018-02-15T11:42:55.818Z,48.18
2018-02-15T11:45:21.881Z,48.20
2018-02-15T11:47:47.929Z,48.19
2018-02-15T11:50:14.066Z,48.62
2018-02-15T11:52:40.156Z,48.92
2018-02-15T11:55:06.433Z,49.06
2018-02-15T11:57:32.507Z,49.25
2018-02-15T11:59:58.551Z,49.15
2018-02-15T12:02:24.627Z,48.54
2018-02-15T12:04:50.692Z,48.93
2018-02-15T12:07:16.745Z,49.35
2018-02-15T12:09:42.836Z,49.31
2018-02-15T12:12:09.007Z,49.67
2018-02-15T12:14:35.092Z,50.20
2018-02-15T12:17:01.192Z,50.09
2018-02-15T12:19:27.271Z,49.79
2018-02-15T12:21:53.320Z,48.93
2018-02-15T12:24:19.416Z,48.65
2018-02-15T12:26:45.468Z,47.87
2018-02-15T12:29:11.572Z,47.43
2018-02-15T12:31:37.619Z,47.87
2018-02-15T12:34:03.689Z,47.80
2018-02-15T12:36:29.792Z,47.42
2018-02-15T12:38:55.844Z,47.34
2018-02-15T12:41:21.887Z,47.20
2018-02-15T12:43:48.021Z,46.34
2018-02-15T12:46:13.892Z,46.47
2018-02-15T12:48:39.742Z,46.00
2018-02-15T12:51:05.670Z,45.52
2018-02-15T12:53:31.503Z,45.63
2018-02-15T12:55:57.348Z,45.58
2018-02-15T12:58:23.245Z,45.77
2018-02-15T13:00:49.133Z,45.72
2018-02-15T13:03:14.980Z,45.41
2018-02-15T13:05:40.889Z,44.77
2018-02-15T13:08:06.805Z,45.12
2018-02-15T13:10:32.716Z,45.22
2018-02-15T13:13:11.028Z,45.66
2018-02-15T13:15:49.169Z,45.97
2018-02-15T13:18:15.032Z,46.16
2018-02-15T13:20:40.892Z,46.11
2018-02-15T13:23:06.794Z,45.65
2018-02-15T13:25:32.721Z,45.81
2018-02-15T13:28:10.769Z,46.10
2018-02-15T13:30:36.707Z,46.25
2018-02-15T13:33:02.574Z,46.31
2018-02-15T13:35:28.429Z,46.84
2018-02-15T13:37:54.310Z,47.13
2018-02-15T13:40:20.162Z,47.52
2018-02-15T13:42:46.031Z,47.63
2018-02-15T13:45:11.967Z,47.55
2018-02-15T13:47:37.887Z,47.48
2018-02-15T13:50:03.752Z,47.43
2018-02-15T13:52:30.685Z,47.16
2018-02-15T13:54:56.602Z,47.64
2018-02-15T13:57:22.465Z,47.40
2018-02-15T13:59:48.317Z,47.43
2018-02-15T14:02:14.239Z,47.28
2018-02-15T14:04:40.445Z,47.15
2018-02-15T14:07:06.288Z,47.15
2018-02-15T14:09:32.177Z,47.24
2018-02-15T14:11:58.427Z,46.96
2018-02-15T14:14:24.423Z,47.14
2018-02-15T14:16:50.289Z,47.28
2018-02-15T14:19:16.172Z,47.08
2018-02-15T14:21:42.017Z,47.14
2018-02-15T14:24:07.902Z,47.18
2018-02-15T14:26:33.804Z,47.70
2018-02-15T14:28:59.685Z,47.37
2018-02-15T14:31:25.537Z,48.04
2018-02-15T14:33:51.485Z,48.35
2018-02-15T14:36:17.337Z,48.75
2018-02-15T14:38:43.178Z,48.94
2018-02-15T14:41:09.073Z,49.13
2018-02-15T14:43:34.957Z,49.30
2018-02-15T14:46:00.800Z,49.06
2018-02-15T14:48:26.680Z,49.09
2018-02-15T14:50:52.572Z,49.25
2018-02-15T14:53:18.419Z,49.30
2018-02-15T14:55:44.341Z,49.26
2018-02-15T14:58:10.233Z,49.19
2018-02-15T15:00:36.087Z,49.30
2018-02-15T15:03:02.014Z,49.26
2018-02-15T15:05:27.900Z,49.22
2018-02-15T15:07:53.740Z,49.26
2018-02-15T15:10:19.576Z,49.38
2018-02-15T15:12:45.484Z,49.40
2018-02-15T15:15:11.333Z,49.18
2018-02-15T15:17:37.209Z,49.42
2018-02-15T15:20:03.108Z,49.61
2018-02-15T15:22:28.968Z,49.97
2018-02-15T15:24:54.817Z,49.84
2018-02-15T15:27:20.773Z,50.10
2018-02-15T15:29:46.623Z,50.17
2018-02-15T15:32:12.480Z,50.07
2018-02-15T15:34:38.464Z,50.11
2018-02-15T15:37:04.324Z,50.65
2018-02-15T15:39:30.209Z,50.54
2018-02-15T15:41:56.504Z,50.65
2018-02-15T15:44:22.459Z,50.43
2018-02-15T15:46:48.673Z,50.74
2018-02-15T15:49:14.877Z,50.85
2018-02-15T15:51:40.879Z,50.67
2018-02-15T15:54:06.819Z,50.83
2018-02-15T15:56:32.668Z,50.44
2018-02-15T15:58:58.621Z,50.65
2018-02-15T16:01:24.493Z,50.55
2018-02-15T16:03:50.390Z,50.18
2018-02-15T16:06:16.248Z,49.91
2018-02-15T16:08:42.127Z,49.67
2018-02-15T16:11:07.972Z,49.73
2018-02-15T16:13:33.841Z,49.73
2018-02-15T16:15:59.854Z,50.07
2018-02-15T16:18:25.850Z,50.11
2018-02-15T16:20:51.756Z,50.16
2018-02-15T16:23:17.644Z,49.75
2018-02-15T16:25:43.529Z,49.63
2018-02-15T16:28:09.380Z,49.69
2018-02-15T16:30:35.365Z,49.34
2018-02-15T16:33:01.229Z,49.31
2018-02-15T16:35:27.068Z,49.36
2018-02-15T16:37:52.965Z,49.50
2018-02-15T16:40:18.821Z,49.39
2018-02-15T16:42:44.756Z,49.33
2018-02-15T16:45:10.652Z,49.67
2018-02-15T16:47:36.509Z,49.73
2018-02-15T16:50:02.365Z,49.73
2018-02-15T16:52:28.247Z,50.04
2018-02-15T16:54:54.190Z,50.10
2018-02-15T16:57:20.132Z,49.87
2018-02-15T16:59:46.118Z,50.01
2018-02-15T17:02:12.033Z,49.80
2018-02-15T17:04:37.945Z,49.83
2018-02-15T17:07:03.946Z,49.92
2018-02-15T17:09:29.800Z,49.94
2018-02-15T17:11:55.643Z,49.83
2018-02-15T17:14:21.597Z,49.75
2018-02-15T17:16:47.491Z,49.79
2018-02-15T17:19:13.408Z,49.87
2018-02-15T17:21:39.310Z,49.79
2018-02-15T17:24:05.474Z,49.53
2018-02-15T17:26:31.419Z,48.96
2018-02-15T17:28:57.404Z,48.57
2018-02-15T17:31:23.390Z,48.96
2018-02-15T17:33:49.272Z,49.88
2018-02-15T17:36:15.507Z,50.80
2018-02-15T17:38:41.394Z,51.17
2018-02-15T17:41:07.323Z,51.78
2018-02-15T17:43:33.365Z,52.16
2018-02-15T17:45:59.313Z,53.04
2018-02-15T17:48:25.170Z,53.70
2018-02-15T17:50:51.074Z,54.78
2018-02-15T17:53:17.001Z,55.09
2018-02-15T17:55:42.949Z,55.52
2018-02-15T17:58:08.862Z,55.94
2018-02-15T18:00:34.718Z,57.27
2018-02-15T18:03:00.561Z,57.43
2018-02-15T18:05:26.444Z,57.87
2018-02-15T18:07:52.400Z,58.22
2018-02-15T18:10:18.235Z,58.33
2018-02-15T18:12:44.112Z,58.01
2018-02-15T18:15:09.961Z,58.01
2018-02-15T18:17:35.813Z,58.07
2018-02-15T18:20:01.813Z,58.00
2018-02-15T18:22:27.692Z,57.94
2018-02-15T18:24:53.540Z,58.16
2018-02-15T18:27:19.445Z,58.38
2018-02-15T18:29:45.279Z,58.58
2018-02-15T18:32:11.137Z,58.85
2018-02-15T18:34:37.098Z,59.01
2018-02-15T18:37:02.985Z,59.12
2018-02-15T18:39:28.913Z,59.09
2018-02-15T18:41:54.801Z,59.12
2018-02-15T18:44:20.670Z,59.25
2018-02-15T18:46:46.584Z,59.30
2018-02-15T18:49:12.502Z,59.17
2018-02-15T18:51:38.368Z,59.09
2018-02-15T18:54:04.477Z,58.85
2018-02-15T18:56:30.463Z,58.89
2018-02-15T18:58:56.365Z,58.82
2018-02-15T19:01:22.220Z,58.90
2018-02-15T19:03:48.128Z,58.85
2018-02-15T19:06:13.996Z,58.93
2018-02-15T19:08:39.926Z,59.19
2018-02-15T19:11:05.888Z,59.39
2018-02-15T19:13:31.728Z,59.52
2018-02-15T19:15:57.575Z,59.95
2018-02-15T19:18:23.573Z,60.54
2018-02-15T19:20:49.518Z,61.20
2018-02-15T19:23:15.422Z,62.00
2018-02-15T19:25:41.324Z,62.70
2018-02-15T19:28:07.940Z,63.51
2018-02-15T19:30:33.801Z,63.95
2018-02-15T19:32:59.780Z,64.14
2018-02-15T19:35:25.685Z,64.53
2018-02-15T19:37:51.524Z,64.93
2018-02-15T19:40:17.404Z,65.13
2018-02-15T19:42:43.235Z,65.17
2018-02-15T19:45:09.224Z,65.30
2018-02-15T19:47:35.209Z,65.58
2018-02-15T19:50:01.048Z,65.57
2018-02-15T19:52:27.109Z,65.63
2018-02-15T19:54:53.013Z,65.20
2018-02-15T19:57:18.984Z,65.21
2018-02-15T19:59:44.888Z,65.21
2018-02-15T20:02:10.798Z,65.25
2018-02-15T20:04:36.650Z,65.31
2018-02-15T20:07:02.517Z,65.37
2018-02-15T20:09:28.484Z,65.25
2018-02-15T20:11:54.416Z,64.93
2018-02-15T20:14:20.264Z,64.61
2018-02-15T20:16:46.157Z,64.54
2018-02-15T20:19:13.408Z,64.30
2018-02-15T20:21:39.371Z,64.43
2018-02-15T20:24:05.632Z,64.49
2018-02-15T20:26:37.669Z,64.86
2018-02-15T20:29:03.847Z,65.26
2018-02-15T20:31:29.802Z,66.12
2018-02-15T20:33:55.969Z,67.02
2018-02-15T20:36:22.731Z,68.04
2018-02-15T20:38:54.823Z,68.80
2018-02-15T20:41:20.758Z,69.16
2018-02-15T20:43:46.757Z,69.96
2018-02-15T20:46:12.807Z,70.84
2018-02-15T20:48:38.683Z,71.44
2018-02-15T20:51:10.976Z,72.05
2018-02-15T20:53:43.191Z,72.48
2018-02-15T20:56:09.104Z,73.02
2018-02-15T20:58:34.975Z,73.63
2018-02-15T21:01:00.873Z,73.92
2018-02-15T21:03:26.739Z,74.18
2018-02-15T21:05:52.607Z,74.55
2018-02-15T21:08:18.583Z,74.95
2018-02-15T21:10:44.449Z,75.15
2018-02-15T21:13:10.301Z,75.21
2018-02-15T21:15:36.217Z,75.32
2018-02-15T21:18:02.080Z,75.34
2018-02-15T21:20:27.936Z,75.42
2018-02-15T21:22:53.812Z,75.41
2018-02-15T21:25:19.668Z,75.39
2018-02-15T21:27:45.679Z,75.41
2018-02-15T21:30:11.609Z,75.12
2018-02-15T21:32:37.493Z,75.10
2018-02-15T21:35:03.428Z,74.82
2018-02-15T21:37:29.419Z,74.83
2018-02-15T21:39:55.408Z,74.75
2018-02-15T21:42:21.265Z,74.74
2018-02-15T21:44:47.254Z,74.59
2018-02-15T21:47:13.393Z,74.33
2018-02-15T21:49:39.256Z,74.27
2018-02-15T21:52:05.147Z,74.26
2018-02-15T21:54:31.054Z,73.93
2018-02-15T21:56:57.014Z,73.82
2018-02-15T21:59:22.916Z,73.72
2018-02-15T22:01:48.853Z,73.12
2018-02-15T22:04:14.782Z,73.21
2018-02-15T22:06:40.721Z,73.08
2018-02-15T22:09:06.673Z,73.17
2018-02-15T22:11:32.521Z,73.33
2018-02-15T22:13:58.469Z,73.21
2018-02-15T22:16:24.311Z,73.59
2018-02-15T22:18:51.007Z,73.93
2018-02-15T22:21:16.988Z,74.41
2018-02-15T22:23:42.829Z,74.86
2018-02-15T22:26:08.684Z,75.39
2018-02-15T22:28:34.571Z,75.93
2018-02-15T22:31:00.408Z,76.42
2018-02-15T22:33:26.303Z,76.83
2018-02-15T22:35:52.179Z,77.18
2018-02-15T22:38:18.017Z,77.49
2018-02-15T22:40:43.868Z,77.83
2018-02-15T22:43:09.832Z,77.88
2018-02-15T22:45:35.669Z,77.94
2018-02-15T22:48:01.517Z,78.10
2018-02-15T22:50:27.415Z,78.21
2018-02-15T22:52:53.297Z,78.28
2018-02-15T22:55:19.137Z,78.27
2018-02-15T22:57:45.085Z,78.27
2018-02-15T23:00:10.930Z,78.36
2018-02-15T23:02:37.422Z,78.44
2018-02-15T23:05:03.333Z,78.48
2018-02-15T23:07:29.181Z,78.23
2018-02-15T23:09:55.025Z,78.26
2018-02-15T23:12:20.920Z,78.25
2018-02-15T23:14:46.773Z,78.23
2018-02-15T23:17:12.617Z,78.29
2018-02-15T23:19:38.509Z,78.47
2018-02-15T23:22:04.356Z,78.52
2018-02-15T23:24:30.200Z,78.51
2018-02-15T23:26:56.090Z,78.51
2018-02-15T23:29:22.003Z,78.61
2018-02-15T23:31:47.848Z,78.64
2018-02-15T23:34:13.810Z,78.71
2018-02-15T23:36:39.648Z,78.85
2018-02-15T23:39:05.485Z,78.91
2018-02-15T23:41:31.408Z,78.72
2018-02-15T23:43:57.245Z,78.72
2018-02-15T23:46:23.081Z,78.74
2018-02-15T23:48:48.968Z,78.72
2018-02-15T23:51:14.815Z,78.54
2018-02-15T23:53:40.834Z,78.54
2018-02-15T23:56:06.731Z,78.55
2018-02-15T23:58:32.589Z,78.42
